Time;durP1;ratioP1;P1;durP2;ratioP2;P2;SDS_P1;SDS_P2;PMS_P1;PMS_P2;Temp;Humidity;BMP_temperature;BMP_pressure;BME280_temperature;BME280_humidity;BME280_pressure;Samples;Min_cycle;Max_cycle;Signal;HPM_P1;HPM_P2
2022/05/07 00:00:54;;;;;;;1.98;1.88;;;19.40;61.40;;;;;;5032412;28;20025;-70
2022/05/07 00:03:20;;;;;;;2.20;2.10;;;19.40;61.40;;;;;;5033302;28;20079;-70
2022/05/07 00:05:45;;;;;;;2.38;2.28;;;19.40;61.30;;;;;;5015633;28;20124;-70
2022/05/07 00:08:11;;;;;;;2.05;1.95;;;19.40;61.40;;;;;;5033425;28;20080;-70
2022/05/07 00:10:37;;;;;;;2.10;2.00;;;19.40;61.40;;;;;;5033408;28;20071;-70
2022/05/07 00:13:04;;;;;;;2.17;2.08;;;19.40;61.40;;;;;;5033245;28;20079;-70
2022/05/07 00:15:30;;;;;;;2.17;2.08;;;19.30;61.30;;;;;;5033390;28;20052;-70
2022/05/07 00:18:03;;;;;;;2.30;2.20;;;19.30;61.40;;;;;;5033403;28;20061;-70
2022/05/07 00:20:29;;;;;;;2.20;2.10;;;19.30;61.30;;;;;;5033184;28;20033;-70
2022/05/07 00:22:55;;;;;;;2.97;2.78;;;19.40;61.40;;;;;;5031637;28;20408;-70
2022/05/07 00:25:21;;;;;;;2.25;2.15;;;19.30;61.30;;;;;;5015609;28;20025;-70
2022/05/07 00:27:46;;;;;;;2.17;2.08;;;19.30;61.30;;;;;;5033260;28;20029;-70
2022/05/07 00:30:12;;;;;;;2.53;2.33;;;19.30;61.30;;;;;;5031777;28;20029;-70
2022/05/07 00:32:38;;;;;;;2.33;2.13;;;19.30;61.30;;;;;;5032851;28;20021;-70
2022/05/07 00:35:04;;;;;;;2.20;2.10;;;19.30;61.30;;;;;;5031777;28;20056;-70
2022/05/07 00:37:29;;;;;;;2.20;2.10;;;19.30;61.30;;;;;;5033173;28;20379;-70
2022/05/07 00:39:55;;;;;;;2.47;2.38;;;19.30;61.30;;;;;;5031765;28;20025;-70
2022/05/07 00:42:21;;;;;;;2.17;2.08;;;19.30;61.30;;;;;;5032244;28;20042;-70
2022/05/07 00:44:46;;;;;;;2.20;2.10;;;19.30;61.30;;;;;;5032832;28;20492;-70
2022/05/07 00:47:26;;;;;;;2.28;2.17;;;19.30;61.30;;;;;;5032480;28;20021;-70
2022/05/07 00:52:39;;;;;;;1.98;1.88;;;19.30;61.30;;;;;;5018237;28;20039;-70
2022/05/07 00:55:05;;;;;;;2.17;2.08;;;19.30;61.40;;;;;;5032635;28;20104;-70
2022/05/07 00:57:31;;;;;;;2.20;2.10;;;19.30;61.40;;;;;;5014760;28;20105;-70
2022/05/07 00:59:57;;;;;;;2.30;2.20;;;19.30;61.50;;;;;;5031379;28;20109;-70
2022/05/07 01:02:23;;;;;;;2.10;2.00;;;19.30;61.30;;;;;;5031049;28;20021;-70
2022/05/07 01:04:48;;;;;;;2.22;2.13;;;19.30;61.60;;;;;;5032514;28;20075;-70
2022/05/07 01:07:14;;;;;;;2.22;2.13;;;19.30;61.30;;;;;;5032434;28;20108;-70
2022/05/07 01:09:40;;;;;;;2.20;2.10;;;19.30;61.40;;;;;;5031173;28;20068;-70
2022/05/07 01:12:06;;;;;;;2.65;2.45;;;19.30;61.30;;;;;;5014805;28;20115;-70
2022/05/07 01:14:31;;;;;;;2.20;2.00;;;19.30;61.40;;;;;;5031012;28;20041;-70
2022/05/07 01:16:57;;;;;;;2.00;1.90;;;19.30;61.30;;;;;;5032267;28;20025;-70
2022/05/07 01:19:23;;;;;;;2.20;2.10;;;19.30;61.30;;;;;;5032399;28;20035;-70
2022/05/07 01:21:48;;;;;;;2.40;2.30;;;19.20;61.30;;;;;;5032230;28;20486;-70
2022/05/07 01:24:14;;;;;;;2.30;2.20;;;19.30;61.30;;;;;;5032168;28;20040;-70
2022/05/07 01:26:40;;;;;;;2.30;2.20;;;19.30;61.40;;;;;;5032163;28;20431;-70
2022/05/07 01:29:07;;;;;;;2.40;2.17;;;19.30;61.30;;;;;;5032294;28;20025;-70
2022/05/07 01:31:32;;;;;;;2.40;2.30;;;19.20;61.30;;;;;;5030778;28;20060;-70
2022/05/07 01:33:58;;;;;;;2.45;2.25;;;19.20;61.30;;;;;;5031974;28;20053;-70
2022/05/07 01:36:24;;;;;;;1.98;1.88;;;19.20;61.30;;;;;;5031981;28;20377;-70
2022/05/07 01:38:49;;;;;;;2.25;2.15;;;19.20;61.30;;;;;;5032185;28;20029;-70
2022/05/07 01:41:15;;;;;;;2.20;2.10;;;19.20;61.30;;;;;;5030716;28;20052;-70
2022/05/07 01:43:41;;;;;;;2.20;2.10;;;19.20;61.20;;;;;;5031993;28;20048;-70
2022/05/07 01:48:51;;;;;;;2.10;2.00;;;19.20;61.20;;;;;;5032298;28;20044;-70
2022/05/07 01:51:17;;;;;;;2.50;2.30;;;19.20;61.40;;;;;;5032006;28;20521;-70
2022/05/07 01:53:42;;;;;;;2.15;2.05;;;19.20;61.30;;;;;;5033645;28;20034;-70
2022/05/07 01:56:08;;;;;;;2.00;1.90;;;19.20;61.20;;;;;;5035904;28;20032;-70
2022/05/07 01:58:33;;;;;;;2.00;1.90;;;19.20;61.30;;;;;;5035837;28;20029;-70
2022/05/07 02:00:59;;;;;;;2.20;2.10;;;19.20;61.20;;;;;;5034561;28;20024;-70
2022/05/07 02:03:25;;;;;;;2.20;2.10;;;19.20;61.30;;;;;;5036023;28;20029;-70
2022/05/07 02:05:50;;;;;;;2.30;2.20;;;19.20;61.30;;;;;;5035662;28;20029;-70
2022/05/07 02:08:16;;;;;;;2.30;2.20;;;19.20;61.30;;;;;;5035727;28;20040;-70
2022/05/07 02:10:41;;;;;;;1.95;1.85;;;19.20;61.30;;;;;;5035652;28;20014;-70
2022/05/07 02:13:07;;;;;;;1.90;1.80;;;19.20;61.30;;;;;;5034297;28;20029;-70
2022/05/07 02:15:33;;;;;;;2.10;2.00;;;19.20;61.30;;;;;;5035358;28;20104;-70
2022/05/07 02:17:59;;;;;;;1.92;1.83;;;19.20;61.30;;;;;;5034234;28;20036;-70
2022/05/07 02:20:25;;;;;;;2.17;2.08;;;19.20;61.30;;;;;;5035351;28;20022;-70
2022/05/07 02:22:57;;;;;;;2.00;1.90;;;19.10;61.20;;;;;;5034254;28;20108;-70
2022/05/07 02:25:23;;;;;;;2.10;2.00;;;19.20;61.30;;;;;;5035480;28;20392;-70
2022/05/07 02:27:49;;;;;;;2.15;2.05;;;19.20;61.30;;;;;;5035515;28;20021;-70
2022/05/07 02:30:15;;;;;;;1.90;1.80;;;19.10;61.20;;;;;;5033956;28;20100;-70
2022/05/07 02:32:40;;;;;;;2.17;2.08;;;19.10;61.30;;;;;;5034054;28;20155;-70
2022/05/07 02:35:06;;;;;;;2.25;2.15;;;19.10;61.20;;;;;;5035275;28;20030;-70
2022/05/07 02:37:32;;;;;;;1.88;1.77;;;19.10;61.20;;;;;;5034001;28;20037;-70
2022/05/07 02:39:58;;;;;;;2.17;2.08;;;19.10;61.20;;;;;;5035121;28;20033;-70
2022/05/07 02:42:42;;;;;;;1.70;1.60;;;19.10;61.30;;;;;;5033592;28;20128;-70
2022/05/07 02:45:09;;;;;;;2.20;2.10;;;19.10;61.20;;;;;;5034788;28;20021;-70
2022/05/07 02:47:35;;;;;;;1.92;1.83;;;19.10;61.20;;;;;;5033885;28;20087;-70
2022/05/07 02:50:01;;;;;;;2.17;2.08;;;19.10;61.30;;;;;;5035101;28;20025;-70
2022/05/07 02:52:27;;;;;;;2.22;2.13;;;19.10;61.30;;;;;;5017204;28;20084;-70
2022/05/07 02:54:53;;;;;;;2.00;1.90;;;19.10;61.20;;;;;;5033775;28;20438;-70
2022/05/07 02:57:18;;;;;;;1.90;1.80;;;19.10;61.20;;;;;;5034456;28;20076;-70
2022/05/07 02:59:44;;;;;;;1.90;1.80;;;19.10;61.20;;;;;;5034686;28;20025;-70
2022/05/07 03:02:10;;;;;;;1.90;1.80;;;19.10;61.20;;;;;;5034848;28;20022;-70
2022/05/07 03:04:36;;;;;;;1.98;1.88;;;19.10;61.20;;;;;;5034440;28;20021;-70
2022/05/07 03:07:02;;;;;;;1.70;1.60;;;19.10;61.20;;;;;;5033488;28;20511;-70
2022/05/07 03:09:27;;;;;;;1.85;1.75;;;19.10;61.20;;;;;;5033294;28;20112;-70
2022/05/07 03:11:53;;;;;;;2.30;2.10;;;19.10;61.20;;;;;;5033061;28;20491;-70
2022/05/07 03:14:18;;;;;;;1.80;1.70;;;19.10;61.20;;;;;;5033164;28;20036;-70
2022/05/07 03:16:46;;;;;;;2.05;1.95;;;19.10;61.20;;;;;;5034701;28;20132;-70
2022/05/07 03:19:12;;;;;;;1.85;1.75;;;19.10;61.20;;;;;;5034490;28;20021;-70
2022/05/07 03:21:38;;;;;;;1.90;1.80;;;19.10;61.30;;;;;;5033973;28;20087;-70
2022/05/07 03:24:03;;;;;;;2.00;1.90;;;19.10;61.30;;;;;;5034448;28;20018;-70
2022/05/07 03:26:29;;;;;;;1.90;1.80;;;19.10;61.20;;;;;;5034007;28;20028;-70
2022/05/07 03:28:55;;;;;;;1.95;1.85;;;19.10;61.20;;;;;;5032930;28;20025;-70
2022/05/07 03:31:20;;;;;;;1.95;1.85;;;19.10;61.20;;;;;;5034234;28;20060;-70
2022/05/07 03:33:46;;;;;;;2.13;2.03;;;19.10;61.20;;;;;;5034161;28;20031;-70
2022/05/07 03:36:16;;;;;;;2.25;2.05;;;19.10;61.20;;;;;;5032939;28;20025;-70
2022/05/07 03:38:42;;;;;;;2.13;1.92;;;19.10;61.20;;;;;;5016630;28;20160;-70
2022/05/07 03:41:07;;;;;;;2.00;1.90;;;19.10;61.20;;;;;;5032517;28;20120;-70
2022/05/07 03:43:36;;;;;;;1.80;1.70;;;19.10;61.30;;;;;;5034010;28;20029;-70
2022/05/07 03:46:03;;;;;;;1.98;1.88;;;19.10;61.30;;;;;;5016781;28;20507;-70
2022/05/07 03:48:29;;;;;;;1.73;1.63;;;19.00;61.20;;;;;;5033750;28;20021;-70
2022/05/07 03:50:55;;;;;;;1.77;1.67;;;19.10;61.20;;;;;;5032953;28;20032;-70
2022/05/07 03:53:29;;;;;;;1.92;1.83;;;19.10;61.30;;;;;;5032882;28;20030;-70
2022/05/07 03:56:06;;;;;;;1.88;1.77;;;19.00;61.20;;;;;;5033633;28;20037;-70
2022/05/07 03:58:32;;;;;;;1.90;1.80;;;19.00;61.20;;;;;;5032274;28;20087;-70
2022/05/07 04:00:58;;;;;;;1.50;1.40;;;19.00;61.20;;;;;;5016075;28;20056;-70
2022/05/07 04:03:24;;;;;;;1.98;1.88;;;19.00;61.20;;;;;;5033889;28;20021;-70
2022/05/07 04:05:50;;;;;;;1.80;1.70;;;19.00;61.20;;;;;;5016076;28;20076;-70
2022/05/07 04:08:16;;;;;;;1.75;1.65;;;19.00;61.30;;;;;;5032412;28;20468;-70
2022/05/07 04:10:44;;;;;;;1.75;1.65;;;19.00;61.20;;;;;;5031881;28;20033;-70
2022/05/07 04:13:11;;;;;;;1.90;1.80;;;19.00;61.20;;;;;;5016093;28;20022;-70
2022/05/07 04:15:37;;;;;;;1.83;1.73;;;19.00;61.20;;;;;;5032888;28;20030;-70
2022/05/07 04:18:06;;;;;;;1.90;1.80;;;19.00;61.20;;;;;;5033329;28;20027;-70
2022/05/07 04:20:32;;;;;;;1.75;1.65;;;19.00;61.20;;;;;;5032080;28;20443;-70
2022/05/07 04:22:58;;;;;;;1.77;1.67;;;19.00;61.20;;;;;;5031909;28;20029;-70
2022/05/07 04:25:23;;;;;;;1.67;1.58;;;19.00;61.20;;;;;;5032942;28;20025;-70
2022/05/07 04:27:49;;;;;;;1.70;1.60;;;19.00;61.20;;;;;;5031727;28;20124;-70
2022/05/07 04:30:14;;;;;;;2.22;1.45;;;19.00;61.30;;;;;;5031794;28;20057;-70
2022/05/07 04:32:40;;;;;;;1.55;1.45;;;19.00;61.30;;;;;;5033005;28;20433;-70
2022/05/07 04:35:06;;;;;;;1.85;1.75;;;19.00;61.20;;;;;;5032908;28;20056;-70
2022/05/07 04:37:32;;;;;;;1.63;1.52;;;19.00;61.20;;;;;;5031724;28;20034;-70
2022/05/07 04:39:57;;;;;;;1.83;1.73;;;19.00;61.20;;;;;;5031097;28;20094;-70
2022/05/07 04:42:23;;;;;;;1.80;1.70;;;19.00;61.20;;;;;;5031825;28;20462;-70
2022/05/07 04:44:49;;;;;;;1.90;1.80;;;19.00;61.20;;;;;;5031930;28;20025;-70
2022/05/07 04:47:14;;;;;;;1.80;1.70;;;18.90;61.20;;;;;;5031989;28;20033;-70
2022/05/07 04:49:40;;;;;;;1.75;1.65;;;19.00;61.20;;;;;;5031892;28;20023;-70
2022/05/07 04:52:06;;;;;;;1.77;1.67;;;19.00;61.20;;;;;;5032033;28;20039;-70
2022/05/07 04:54:31;;;;;;;1.85;1.75;;;19.00;61.20;;;;;;5030482;28;20068;-70
2022/05/07 04:56:57;;;;;;;1.90;1.80;;;19.00;61.20;;;;;;5031889;28;20021;-70
2022/05/07 04:59:23;;;;;;;1.70;1.55;;;19.00;61.30;;;;;;5030755;28;20567;-70
2022/05/07 05:01:48;;;;;;;1.77;1.67;;;19.00;61.30;;;;;;5030586;28;20469;-70
2022/05/07 05:04:14;;;;;;;1.70;1.60;;;19.00;61.20;;;;;;5032194;28;20025;-70
2022/05/07 05:06:40;;;;;;;1.60;1.50;;;19.00;61.30;;;;;;5031654;28;20052;-70
2022/05/07 05:09:06;;;;;;;2.15;1.80;;;19.00;61.20;;;;;;5030452;28;20037;-70
2022/05/07 05:11:33;;;;;;;1.73;1.63;;;19.00;61.30;;;;;;5031658;28;20353;-70
2022/05/07 05:13:59;;;;;;;1.70;1.60;;;19.00;61.30;;;;;;5019083;28;20026;-70
2022/05/07 05:16:24;;;;;;;2.03;1.92;;;18.90;61.20;;;;;;5030389;28;20030;-70
2022/05/07 05:18:50;;;;;;;1.60;1.50;;;19.00;61.20;;;;;;5030408;28;20017;-70
2022/05/07 05:21:16;;;;;;;1.67;1.58;;;18.90;61.20;;;;;;5030261;28;20013;-70
2022/05/07 05:23:42;;;;;;;1.67;1.58;;;18.90;61.20;;;;;;5030257;28;20018;-70
2022/05/07 05:26:07;;;;;;;1.45;1.35;;;18.90;61.20;;;;;;5031471;28;20404;-70
2022/05/07 05:28:35;;;;;;;1.88;1.73;;;18.90;61.20;;;;;;5029038;28;20025;-70
2022/05/07 05:31:02;;;;;;;1.20;1.20;;;18.90;61.20;;;;;;5030346;28;20049;-70
2022/05/07 05:33:27;;;;;;;2.08;1.95;;;18.90;61.30;;;;;;5030273;28;20369;-70
2022/05/07 05:35:53;;;;;;;1.60;1.50;;;18.90;61.20;;;;;;5031354;28;20088;-70
2022/05/07 05:38:19;;;;;;;1.80;1.70;;;18.90;61.20;;;;;;5031177;28;20079;-70
2022/05/07 05:40:44;;;;;;;1.50;1.40;;;18.90;62.20;;;;;;4979689;28;1447147;-70
2022/05/07 05:43:10;;;;;;;1.77;1.67;;;18.90;61.20;;;;;;5032055;28;20030;-70
2022/05/07 05:45:36;;;;;;;1.73;1.63;;;18.90;61.20;;;;;;5030926;28;20021;-70
2022/05/07 05:48:02;;;;;;;1.80;1.70;;;18.90;61.20;;;;;;5030800;28;20116;-70
2022/05/07 05:50:31;;;;;;;1.58;1.48;;;18.90;61.20;;;;;;5030904;28;20025;-70
2022/05/07 05:52:59;;;;;;;1.80;1.70;;;18.90;61.20;;;;;;5031749;28;20036;-70
2022/05/07 05:55:25;;;;;;;1.55;1.45;;;18.90;61.30;;;;;;5032083;28;20049;-70
2022/05/07 05:57:50;;;;;;;1.63;1.52;;;18.90;61.30;;;;;;5031880;28;20086;-70
2022/05/07 06:00:17;;;;;;;1.70;1.60;;;18.90;61.30;;;;;;5030546;28;20526;-70
2022/05/07 06:02:44;;;;;;;1.70;1.60;;;18.90;61.30;;;;;;5030887;28;20071;-70
2022/05/07 06:05:13;;;;;;;1.70;1.60;;;18.90;61.30;;;;;;5014636;28;20022;-70
2022/05/07 06:07:39;;;;;;;1.50;1.42;;;18.90;61.30;;;;;;5014518;28;20013;-70
2022/05/07 06:10:05;;;;;;;1.90;1.80;;;18.90;61.30;;;;;;5030746;28;20022;-70
2022/05/07 06:12:31;;;;;;;1.92;1.83;;;18.90;61.30;;;;;;5030792;28;20052;-70
2022/05/07 06:14:57;;;;;;;1.70;1.60;;;18.90;61.20;;;;;;5030679;28;20018;-70
2022/05/07 06:17:23;;;;;;;1.70;1.60;;;18.90;61.20;;;;;;5030996;28;20164;-70
2022/05/07 06:19:49;;;;;;;1.77;1.67;;;18.90;61.30;;;;;;5030552;28;20029;-70
2022/05/07 06:22:14;;;;;;;1.65;1.55;;;18.90;61.30;;;;;;5030231;28;20013;-70
2022/05/07 06:27:33;;;;;;;1.90;1.80;;;18.90;61.30;;;;;;5031776;28;20048;-70
2022/05/07 06:29:59;;;;;;;1.77;1.67;;;18.80;61.30;;;;;;5031834;28;20056;-70
2022/05/07 06:32:35;;;;;;;1.80;1.70;;;18.80;61.20;;;;;;5030472;28;20024;-70
2022/05/07 06:35:05;;;;;;;1.83;1.73;;;18.90;61.30;;;;;;5031450;28;20067;-70
2022/05/07 06:37:31;;;;;;;1.90;1.80;;;18.80;61.30;;;;;;5030695;28;20032;-70
2022/05/07 06:39:57;;;;;;;1.95;1.80;;;18.80;61.30;;;;;;5033280;28;20029;-70
2022/05/07 06:42:23;;;;;;;1.50;1.40;;;18.90;61.40;;;;;;5034892;28;20050;-70
2022/05/07 06:44:49;;;;;;;1.90;1.80;;;18.80;61.30;;;;;;5034053;28;20105;-70
2022/05/07 06:47:15;;;;;;;1.88;1.77;;;18.80;61.30;;;;;;5035077;28;20017;-70
2022/05/07 06:49:43;;;;;;;1.95;1.85;;;18.80;61.30;;;;;;5033554;28;20033;-70
2022/05/07 06:52:09;;;;;;;2.42;2.22;;;18.80;61.30;;;;;;5035070;28;20095;-70
2022/05/07 06:54:34;;;;;;;1.92;1.83;;;18.80;61.30;;;;;;5035100;28;20026;-70
2022/05/07 06:57:00;;;;;;;2.35;1.48;;;18.80;61.30;;;;;;5017421;28;20484;-70
2022/05/07 06:59:26;;;;;;;1.98;1.88;;;18.80;61.30;;;;;;5034819;28;20025;-70
2022/05/07 07:01:54;;;;;;;2.08;1.90;;;18.80;61.30;;;;;;5034941;28;20026;-70
2022/05/07 07:04:20;;;;;;;2.30;2.00;;;18.80;61.30;;;;;;5034879;28;20021;-70
2022/05/07 07:06:46;;;;;;;2.08;1.98;;;18.80;61.30;;;;;;5034642;28;20027;-70
2022/05/07 07:09:11;;;;;;;1.88;1.77;;;18.80;61.20;;;;;;5034746;28;20558;-70
2022/05/07 07:11:37;;;;;;;1.80;1.70;;;18.80;61.20;;;;;;5034568;28;20036;-70
2022/05/07 07:14:02;;;;;;;2.10;1.90;;;18.80;61.30;;;;;;5033505;28;20116;-70
2022/05/07 07:16:29;;;;;;;1.90;1.80;;;18.90;61.30;;;;;;5034556;28;20086;-70
2022/05/07 07:18:55;;;;;;;2.20;1.90;;;18.80;61.30;;;;;;5034098;28;20164;-70
2022/05/07 07:21:20;;;;;;;1.90;1.80;;;18.80;61.30;;;;;;5033601;28;20482;-70
2022/05/07 07:23:46;;;;;;;1.88;1.77;;;18.80;61.30;;;;;;5034306;28;20462;-70
2022/05/07 07:26:12;;;;;;;1.90;1.80;;;18.80;61.30;;;;;;5034526;28;20134;-70
2022/05/07 07:28:37;;;;;;;1.77;1.67;;;18.80;61.30;;;;;;5034462;28;20029;-70
2022/05/07 07:31:03;;;;;;;1.80;1.70;;;18.80;61.30;;;;;;5034372;28;20067;-70
2022/05/07 07:33:29;;;;;;;2.28;2.08;;;18.80;61.30;;;;;;5034189;28;20033;-70
2022/05/07 07:35:54;;;;;;;1.98;1.88;;;18.80;61.30;;;;;;5034144;28;20079;-70
2022/05/07 07:38:21;;;;;;;2.00;1.80;;;18.80;61.30;;;;;;5034095;28;20026;-70
2022/05/07 07:40:50;;;;;;;1.73;1.63;;;18.80;61.30;;;;;;5033811;28;20021;-70
2022/05/07 07:43:16;;;;;;;1.92;1.60;;;18.80;61.30;;;;;;5034217;28;20087;-70
2022/05/07 07:48:26;;;;;;;2.08;1.98;;;18.80;61.40;;;;;;5032875;28;20113;-70
2022/05/07 07:50:52;;;;;;;1.73;1.63;;;18.80;61.50;;;;;;5033096;28;20100;-70
2022/05/07 07:53:18;;;;;;;1.73;1.63;;;18.80;61.40;;;;;;5032583;28;20568;-70
2022/05/07 07:55:43;;;;;;;1.73;1.63;;;18.80;61.40;;;;;;5033917;28;20087;-70
2022/05/07 07:58:10;;;;;;;2.00;1.75;;;18.80;61.40;;;;;;5033886;28;20427;-70
2022/05/07 08:00:37;;;;;;;1.80;1.70;;;18.80;61.40;;;;;;5033729;28;20495;-70
2022/05/07 08:03:04;;;;;;;2.28;1.50;;;18.80;61.40;;;;;;5033466;28;20048;-70
2022/05/07 08:05:31;;;;;;;1.98;1.88;;;18.80;61.40;;;;;;5033808;28;20028;-70
2022/05/07 08:13:25;;;;;;;1.77;1.67;;;18.80;61.40;;;;;;5032678;28;20087;-70
2022/05/07 08:15:51;;;;;;;2.30;2.10;;;18.70;61.40;;;;;;5033476;28;20025;-70
2022/05/07 08:18:16;;;;;;;2.05;1.88;;;18.80;61.50;;;;;;5032018;28;20025;-70
2022/05/07 08:20:42;;;;;;;2.40;1.75;;;18.80;61.50;;;;;;5033614;28;20388;-70
2022/05/07 08:23:09;;;;;;;1.60;1.50;;;18.70;61.40;;;;;;5015634;28;20087;-70
2022/05/07 08:25:35;;;;;;;1.63;1.52;;;18.80;61.50;;;;;;5015742;28;20447;-70
2022/05/07 08:28:00;;;;;;;1.70;1.60;;;18.80;61.50;;;;;;5015558;28;20021;-70
2022/05/07 08:30:26;;;;;;;1.73;1.63;;;18.80;61.50;;;;;;5033203;28;20032;-70
2022/05/07 08:32:52;;;;;;;1.60;1.50;;;18.70;61.40;;;;;;5033018;28;20029;-70
2022/05/07 08:35:18;;;;;;;1.50;1.40;;;18.80;61.50;;;;;;5033267;28;20078;-70
2022/05/07 08:37:44;;;;;;;1.80;1.65;;;18.80;61.50;;;;;;5031942;28;20052;-70
2022/05/07 08:40:13;;;;;;;2.08;1.40;;;18.80;61.50;;;;;;5029835;28;20480;-70
2022/05/07 08:42:39;;;;;;;1.65;1.55;;;18.80;61.50;;;;;;5027507;28;20420;-70
2022/05/07 08:45:05;;;;;;;1.33;1.23;;;18.80;61.50;;;;;;5031626;28;20024;-70
2022/05/07 08:47:31;;;;;;;1.95;1.60;;;18.70;61.50;;;;;;5032662;28;20014;-70
2022/05/07 08:49:57;;;;;;;1.67;1.58;;;18.80;61.50;;;;;;5031734;28;20018;-70
2022/05/07 08:52:23;;;;;;;2.25;1.52;;;18.80;61.50;;;;;;5031558;28;20044;-70
2022/05/07 08:54:48;;;;;;;1.48;1.38;;;18.70;61.40;;;;;;5032824;28;20476;-70
2022/05/07 08:57:15;;;;;;;1.63;1.52;;;18.80;61.50;;;;;;5031600;28;20438;-70
2022/05/07 08:59:42;;;;;;;1.75;1.60;;;18.70;61.40;;;;;;5031384;28;20503;-70
2022/05/07 09:02:08;;;;;;;1.60;1.50;;;18.70;61.40;;;;;;5032364;28;20506;-70
2022/05/07 09:04:36;;;;;;;1.88;1.50;;;18.70;61.40;;;;;;5031463;28;20048;-70
2022/05/07 09:07:03;;;;;;;1.55;1.45;;;18.70;61.40;;;;;;5032697;28;20064;-70
2022/05/07 09:09:31;;;;;;;1.50;1.40;;;18.70;61.40;;;;;;5031458;28;20028;-70
2022/05/07 09:11:57;;;;;;;1.58;1.48;;;18.70;61.40;;;;;;5031479;28;20057;-70
2022/05/07 09:14:29;;;;;;;1.30;1.20;;;18.70;61.40;;;;;;5014920;28;20510;-70
2022/05/07 09:16:59;;;;;;;1.67;1.50;;;18.80;61.50;;;;;;5032544;28;20018;-70
2022/05/07 09:19:30;;;;;;;1.50;1.40;;;18.70;61.40;;;;;;5031360;28;20105;-70
2022/05/07 09:22:09;;;;;;;1.58;1.48;;;18.70;61.40;;;;;;5031455;28;20447;-70
2022/05/07 09:24:35;;;;;;;1.60;1.50;;;18.80;61.50;;;;;;5031517;28;20010;-70
2022/05/07 09:27:03;;;;;;;2.33;1.30;;;18.70;61.50;;;;;;5032350;28;20018;-70
2022/05/07 09:29:29;;;;;;;2.20;1.55;;;18.70;61.40;;;;;;5032445;28;20047;-70
2022/05/07 09:31:55;;;;;;;1.52;1.42;;;18.70;61.40;;;;;;5032349;28;20018;-70
2022/05/07 09:37:18;;;;;;;1.48;1.38;;;18.70;61.40;;;;;;5031449;28;20068;-70
2022/05/07 09:39:48;;;;;;;1.55;1.45;;;18.70;61.40;;;;;;5030884;28;20082;-70
2022/05/07 09:42:16;;;;;;;1.75;1.65;;;18.70;61.50;;;;;;5030967;28;20053;-70
2022/05/07 09:44:42;;;;;;;1.10;1.10;;;18.70;61.50;;;;;;5030992;28;20025;-70
2022/05/07 09:47:09;;;;;;;1.20;1.08;;;18.70;61.50;;;;;;5030927;28;20076;-70
2022/05/07 09:49:35;;;;;;;1.27;1.20;;;18.70;61.40;;;;;;5014880;28;20055;-70
2022/05/07 09:52:01;;;;;;;1.30;1.30;;;18.70;61.40;;;;;;5014614;28;20451;-70
2022/05/07 09:59:56;;;;;;;1.50;1.40;;;18.70;61.50;;;;;;5031847;28;20044;-70
2022/05/07 10:02:40;;;;;;;1.40;1.30;;;18.70;61.50;;;;;;5014825;28;20020;-70
2022/05/07 10:05:27;;;;;;;1.25;1.15;;;18.70;61.40;;;;;;5031028;28;20033;-70
2022/05/07 10:08:05;;;;;;;1.30;1.30;;;18.70;61.50;;;;;;5032174;28;20025;-70
2022/05/07 10:10:36;;;;;;;1.25;1.13;;;18.70;61.50;;;;;;5032021;28;20108;-70
2022/05/07 10:13:02;;;;;;;1.40;1.30;;;18.70;61.60;;;;;;5014577;28;20049;-70
2022/05/07 10:15:28;;;;;;;1.48;1.38;;;18.70;61.60;;;;;;5033644;28;20029;-70
2022/05/07 10:18:15;;;;;;;1.52;1.42;;;18.70;61.60;;;;;;5036061;28;20028;-70
2022/05/07 10:20:43;;;;;;;1.42;1.20;;;18.70;61.40;;;;;;5018482;28;20079;-70
2022/05/07 10:23:09;;;;;;;1.30;1.20;;;18.70;61.60;;;;;;5035496;28;20017;-70
2022/05/07 10:25:35;;;;;;;1.00;1.00;;;18.70;61.60;;;;;;5018162;28;20029;-70
2022/05/07 10:28:08;;;;;;;1.17;1.13;;;18.70;61.50;;;;;;5034249;28;20010;-70
2022/05/07 10:30:48;;;;;;;1.40;1.30;;;18.70;61.50;;;;;;5035714;28;20357;-70
2022/05/07 10:33:14;;;;;;;1.10;1.10;;;18.80;61.50;;;;;;5034364;28;20028;-70
2022/05/07 10:35:49;;;;;;;1.23;1.13;;;18.70;61.60;;;;;;5035504;28;20026;-70
2022/05/07 10:38:33;;;;;;;1.08;1.08;;;18.70;61.70;;;;;;5035402;28;20024;-70
2022/05/07 10:41:05;;;;;;;1.20;1.13;;;18.70;61.50;;;;;;5035049;28;20033;-70
2022/05/07 10:43:35;;;;;;;1.65;1.00;;;18.70;61.60;;;;;;5035298;28;20025;-70
2022/05/07 10:46:20;;;;;;;1.15;1.08;;;18.70;61.60;;;;;;5034275;28;20026;-70
2022/05/07 10:48:58;;;;;;;1.27;1.20;;;18.70;61.50;;;;;;5033931;28;20511;-70
2022/05/07 10:51:30;;;;;;;1.10;1.10;;;18.70;61.60;;;;;;5034169;28;20036;-70
2022/05/07 10:54:03;;;;;;;1.00;1.00;;;18.70;61.70;;;;;;5017636;28;20025;-70
2022/05/07 10:56:42;;;;;;;1.30;1.30;;;18.70;61.70;;;;;;5033881;28;20026;-70
2022/05/07 10:59:08;;;;;;;1.50;1.40;;;18.70;61.60;;;;;;5017782;28;20061;-70
2022/05/07 11:01:36;;;;;;;1.25;0.80;;;18.70;61.70;;;;;;5035039;28;20060;-70
2022/05/07 11:04:06;;;;;;;1.02;1.00;;;18.70;61.70;;;;;;5034980;28;20548;-70
2022/05/07 11:06:32;;;;;;;1.10;1.00;;;18.70;61.60;;;;;;5017505;28;20079;-70
2022/05/07 11:08:58;;;;;;;1.20;1.10;;;18.70;61.70;;;;;;5033795;28;20049;-70
2022/05/07 11:11:24;;;;;;;1.40;1.30;;;18.70;61.60;;;;;;5034553;28;20064;-70
2022/05/07 11:13:54;;;;;;;0.90;0.90;;;18.70;61.60;;;;;;5034718;28;20557;-70
2022/05/07 11:16:21;;;;;;;1.98;1.20;;;18.70;61.60;;;;;;5034667;28;20472;-70
2022/05/07 11:18:50;;;;;;;1.05;1.05;;;18.70;61.60;;;;;;5033587;28;20112;-70
2022/05/07 11:21:25;;;;;;;0.95;0.85;;;18.70;61.70;;;;;;5034650;28;20097;-70
2022/05/07 11:23:58;;;;;;;1.38;1.13;;;18.70;61.60;;;;;;5033442;28;20036;-70
2022/05/07 11:26:24;;;;;;;;;;;18.70;61.70;;;;;;5033477;28;20025;-70
2022/05/07 11:28:51;;;;;;;1.05;1.05;;;18.70;61.60;;;;;;5033514;28;19905;-70
2022/05/07 11:31:32;;;;;;;1.10;1.10;;;18.70;62.00;;;;;;5016883;28;20029;-70
2022/05/07 11:34:11;;;;;;;1.00;1.00;;;18.70;61.70;;;;;;5016930;28;20028;-70
2022/05/07 11:36:37;;;;;;;1.42;1.30;;;18.70;61.70;;;;;;5033084;28;20030;-70
2022/05/07 11:39:07;;;;;;;1.10;1.02;;;18.70;61.80;;;;;;5016364;28;22493;-70
2022/05/07 11:41:33;;;;;;;1.13;1.13;;;18.70;61.80;;;;;;5032823;28;20045;-70
2022/05/07 11:46:54;;;;;;;1.00;1.00;;;18.70;61.70;;;;;;5034293;28;20028;-70
2022/05/07 11:49:33;;;;;;;1.17;1.00;;;18.70;61.70;;;;;;5033974;28;20045;-70
2022/05/07 11:52:06;;;;;;;1.00;1.00;;;18.70;62.70;;;;;;5032826;28;20028;-70
2022/05/07 11:54:32;;;;;;;1.08;1.08;;;18.70;61.70;;;;;;5016380;28;20057;-70
2022/05/07 11:56:59;;;;;;;1.10;1.00;;;18.70;61.70;;;;;;5032904;28;20061;-70
2022/05/07 11:59:25;;;;;;;0.90;0.90;;;18.70;61.70;;;;;;5033951;28;20037;-70
2022/05/07 12:01:51;;;;;;;1.30;1.20;;;18.70;61.70;;;;;;5033724;28;20075;-70
2022/05/07 12:04:16;;;;;;;1.00;1.00;;;18.70;61.60;;;;;;5032812;28;20026;-70
2022/05/07 12:06:52;;;;;;;1.08;1.08;;;18.70;61.70;;;;;;5033838;28;20036;-70
2022/05/07 12:09:17;;;;;;;1.10;0.98;;;18.70;61.60;;;;;;5033573;28;20033;-70
2022/05/07 12:11:43;;;;;;;0.93;0.93;;;18.70;61.70;;;;;;5033754;28;20022;-70
2022/05/07 12:14:09;;;;;;;0.80;0.80;;;18.70;61.60;;;;;;5033558;28;20108;-70
2022/05/07 12:19:27;;;;;;;0.90;0.90;;;18.80;61.60;;;;;;5033631;28;20036;-70
2022/05/07 12:30:05;;;;;;;0.80;0.80;;;18.70;61.70;;;;;;5033500;28;20544;-70
2022/05/07 12:32:31;;;;;;;0.90;0.90;;;18.70;61.70;;;;;;5033265;28;20052;-70
2022/05/07 12:34:56;;;;;;;0.80;0.80;;;18.70;61.70;;;;;;5033347;28;20025;-70
2022/05/07 12:37:22;;;;;;;0.90;0.80;;;18.70;61.70;;;;;;5032434;28;20029;-70
2022/05/07 12:39:47;;;;;;;0.98;0.98;;;18.70;61.70;;;;;;5032997;28;20033;-70
2022/05/07 12:42:13;;;;;;;0.90;0.90;;;18.70;61.70;;;;;;5033019;28;20053;-70
2022/05/07 12:44:43;;;;;;;1.00;1.00;;;18.70;61.70;;;;;;5031751;28;20404;-70
2022/05/07 12:47:09;;;;;;;1.00;1.00;;;18.80;61.70;;;;;;5031773;28;20100;-70
2022/05/07 12:49:34;;;;;;;0.88;0.88;;;18.80;61.70;;;;;;5031750;28;20125;-70
2022/05/07 12:52:02;;;;;;;0.88;0.88;;;18.80;61.70;;;;;;5033012;28;20484;-70
2022/05/07 12:54:31;;;;;;;1.10;1.10;;;18.80;61.70;;;;;;5031451;28;20029;-70
2022/05/07 12:56:57;;;;;;;1.98;1.00;;;18.80;61.70;;;;;;5032784;28;20518;-70
2022/05/07 12:59:23;;;;;;;1.15;1.05;;;18.80;61.70;;;;;;5032775;28;20064;-70
2022/05/07 13:01:48;;;;;;;1.30;1.15;;;18.80;61.70;;;;;;5032717;28;20017;-70
2022/05/07 13:04:14;;;;;;;0.68;0.68;;;18.80;61.70;;;;;;5031555;28;20083;-70
2022/05/07 13:06:39;;;;;;;0.90;0.90;;;18.80;61.70;;;;;;5032713;28;20110;-70
2022/05/07 13:09:05;;;;;;;1.50;0.93;;;18.80;61.70;;;;;;5032556;28;20025;-70
2022/05/07 13:11:31;;;;;;;1.05;0.95;;;18.80;61.70;;;;;;5032850;28;20033;-70
2022/05/07 13:13:56;;;;;;;0.85;0.80;;;18.80;61.70;;;;;;5031371;28;20021;-70
2022/05/07 13:16:22;;;;;;;0.75;0.75;;;18.80;61.70;;;;;;5031531;28;20045;-70
2022/05/07 13:18:48;;;;;;;0.77;0.77;;;18.80;61.70;;;;;;5015181;28;20033;-70
2022/05/07 13:21:13;;;;;;;0.70;0.70;;;18.80;61.70;;;;;;5032337;28;20044;-70
2022/05/07 13:23:39;;;;;;;0.90;0.70;;;18.80;61.70;;;;;;5031297;28;20033;-70
2022/05/07 13:26:05;;;;;;;1.25;0.80;;;18.80;61.80;;;;;;5031544;28;20068;-70